DLH43U LPPR-EDDF
Flight info
| Callsign | DLH43U |
|---|---|
| Flight time | 2h 26m |
| Altitude | 24000 |
| Route | TURON P600 ASDEB/N0462F340 DCT LOTEE DCT AZFIC UN741 MOKOR UN873 OBATO UM163 TSU UN858 OQQAL DCT RANUX/N0458F350 DCT VALEK DCT LIPNI DCT LIMGO Z111 TUTOV/N0407F230 Z111 RAMOB IMCOM1D |
| Aircraft | A21N/M-SDE2E3FGHIJ1RWXY/LB1 |
Departure
| Time | 2026-04-14 14:03 |
|---|---|
| Airport | Francisco de Sá Carneiro Airport (LPPR) |
Arrival
| Time | 2026-04-14 16:29 |
|---|---|
| Airport | Frankfurt Main Airport (EDDF) |
| Time | Latitude | Longitude | Altitude | Speed | Heading |
|---|---|---|---|---|---|
| 2026-04-14 12:58 | 41.23686 | -8.67256 | 251 ft | 0 kts | 79° |
| 2026-04-14 13:51 | 41.23683 | -8.67280 | 250 ft | 4 kts | 79° |
| 2026-04-14 13:51 | 41.23676 | -8.67311 | 249 ft | 4 kts | 54° |
| 2026-04-14 13:52 | 41.23657 | -8.67329 | 248 ft | 5 kts | 11° |
| 2026-04-14 13:52 | 41.23631 | -8.67331 | 247 ft | 5 kts | 352° |
| 2026-04-14 13:52 | 41.23621 | -8.67329 | 247 ft | 4 kts | 349° |
| 2026-04-14 13:55 | 41.23624 | -8.67329 | 247 ft | 0 kts | 348° |
| 2026-04-14 13:56 | 41.23631 | -8.67331 | 247 ft | 3 kts | 348° |
| 2026-04-14 13:56 | 41.23669 | -8.67341 | 247 ft | 7 kts | 348° |
| 2026-04-14 13:56 | 41.23713 | -8.67382 | 246 ft | 9 kts | 310° |
| 2026-04-14 13:56 | 41.23753 | -8.67447 | 244 ft | 10 kts | 322° |
| 2026-04-14 13:57 | 41.23825 | -8.67476 | 244 ft | 12 kts | 349° |
| 2026-04-14 13:57 | 41.23911 | -8.67498 | 243 ft | 13 kts | 349° |
| 2026-04-14 13:57 | 41.24007 | -8.67523 | 243 ft | 15 kts | 349° |
| 2026-04-14 13:57 | 41.24115 | -8.67550 | 243 ft | 16 kts | 349° |
| 2026-04-14 13:58 | 41.24226 | -8.67589 | 242 ft | 16 kts | 326° |
| 2026-04-14 13:58 | 41.24308 | -8.67695 | 240 ft | 17 kts | 325° |
| 2026-04-14 13:58 | 41.24424 | -8.67736 | 229 ft | 18 kts | 346° |
| 2026-04-14 13:58 | 41.24528 | -8.67765 | 224 ft | 14 kts | 347° |
| 2026-04-14 13:59 | 41.24633 | -8.67792 | 218 ft | 17 kts | 347° |
| 2026-04-14 13:59 | 41.24749 | -8.67824 | 215 ft | 18 kts | 342° |
| 2026-04-14 13:59 | 41.24862 | -8.67894 | 210 ft | 18 kts | 335° |
| 2026-04-14 13:59 | 41.24987 | -8.67940 | 198 ft | 19 kts | 347° |
| 2026-04-14 14:00 | 41.25120 | -8.67975 | 204 ft | 20 kts | 347° |
| 2026-04-14 14:00 | 41.25258 | -8.68011 | 192 ft | 21 kts | 347° |
| 2026-04-14 14:00 | 41.25401 | -8.68048 | 183 ft | 21 kts | 347° |
| 2026-04-14 14:00 | 41.25545 | -8.68086 | 178 ft | 14 kts | 347° |
| 2026-04-14 14:01 | 41.25640 | -8.68115 | 176 ft | 15 kts | 333° |
| 2026-04-14 14:01 | 41.25675 | -8.68227 | 175 ft | 11 kts | 258° |
| 2026-04-14 14:01 | 41.25660 | -8.68319 | 176 ft | 9 kts | 245° |
| 2026-04-14 14:01 | 41.25595 | -8.68333 | 178 ft | 12 kts | 168° |
| 2026-04-14 14:02 | 41.25479 | -8.68303 | 181 ft | 34 kts | 168° |
| 2026-04-14 14:02 | 41.24989 | -8.68174 | 201 ft | 108 kts | 169° |
| 2026-04-14 14:02 | 41.24052 | -8.67934 | 234 ft | 161 kts | 171° |
| 2026-04-14 14:02 | 41.22940 | -8.67647 | 788 ft | 162 kts | 172° |
| 2026-04-14 14:03 | 41.21818 | -8.67360 | 1461 ft | 167 kts | 169° |
| 2026-04-14 14:03 | 41.20606 | -8.67045 | 1871 ft | 188 kts | 170° |
| 2026-04-14 14:03 | 41.19254 | -8.66687 | 2417 ft | 207 kts | 170° |
| 2026-04-14 14:03 | 41.17777 | -8.66297 | 2955 ft | 228 kts | 170° |
| 2026-04-14 14:04 | 41.16147 | -8.65872 | 3451 ft | 249 kts | 170° |
| 2026-04-14 14:04 | 41.14409 | -8.65418 | 4218 ft | 258 kts | 169° |
| 2026-04-14 14:04 | 41.12634 | -8.64952 | 5122 ft | 262 kts | 169° |
| 2026-04-14 14:04 | 41.10870 | -8.64246 | 5995 ft | 268 kts | 152° |
| 2026-04-14 14:05 | 41.09476 | -8.62658 | 6820 ft | 273 kts | 127° |
| 2026-04-14 14:05 | 41.08684 | -8.60354 | 7597 ft | 280 kts | 102° |
| 2026-04-14 14:05 | 41.08701 | -8.57768 | 8363 ft | 285 kts | 76° |
| 2026-04-14 14:05 | 41.09553 | -8.55408 | 9127 ft | 288 kts | 50° |
| 2026-04-14 14:06 | 41.11105 | -8.53733 | 9892 ft | 290 kts | 24° |
| 2026-04-14 14:06 | 41.13053 | -8.53087 | 10533 ft | 295 kts | 1° |
| 2026-04-14 14:06 | 41.15163 | -8.53158 | 10872 ft | 313 kts | 355° |
| 2026-04-14 14:06 | 41.17409 | -8.53328 | 11155 ft | 334 kts | 355° |
| 2026-04-14 14:07 | 41.19798 | -8.53474 | 11426 ft | 353 kts | 356° |
| 2026-04-14 14:07 | 41.22323 | -8.53589 | 11684 ft | 372 kts | 357° |
| 2026-04-14 14:07 | 41.24977 | -8.53699 | 11930 ft | 390 kts | 357° |
| 2026-04-14 14:07 | 41.27721 | -8.53802 | 12317 ft | 399 kts | 357° |
| 2026-04-14 14:08 | 41.30503 | -8.53887 | 12884 ft | 402 kts | 357° |
| 2026-04-14 14:08 | 41.33326 | -8.53977 | 13527 ft | 405 kts | 357° |
| 2026-04-14 14:08 | 41.36161 | -8.54075 | 14146 ft | 407 kts | 357° |
| 2026-04-14 14:08 | 41.38968 | -8.54164 | 14658 ft | 409 kts | 357° |
| 2026-04-14 14:09 | 41.41825 | -8.54258 | 15209 ft | 412 kts | 357° |
| 2026-04-14 14:09 | 41.44708 | -8.54351 | 15810 ft | 416 kts | 357° |
| 2026-04-14 14:09 | 41.47605 | -8.54436 | 16388 ft | 419 kts | 357° |
| 2026-04-14 14:09 | 41.50529 | -8.54533 | 16955 ft | 422 kts | 356° |
| 2026-04-14 14:10 | 41.53485 | -8.54624 | 17528 ft | 425 kts | 356° |
| 2026-04-14 14:10 | 41.56449 | -8.54715 | 18089 ft | 428 kts | 356° |
| 2026-04-14 14:10 | 41.59451 | -8.54815 | 18622 ft | 431 kts | 356° |
| 2026-04-14 14:10 | 41.62448 | -8.54917 | 19075 ft | 435 kts | 356° |
| 2026-04-14 14:11 | 41.65488 | -8.55019 | 19548 ft | 437 kts | 356° |
| 2026-04-14 14:11 | 41.68548 | -8.55118 | 20036 ft | 440 kts | 356° |
| 2026-04-14 14:11 | 41.71617 | -8.55214 | 20473 ft | 443 kts | 356° |
| 2026-04-14 14:11 | 41.74705 | -8.55319 | 20924 ft | 445 kts | 356° |
| 2026-04-14 14:12 | 41.77810 | -8.55422 | 21418 ft | 448 kts | 356° |
| 2026-04-14 14:12 | 41.80950 | -8.55523 | 21925 ft | 452 kts | 356° |
| 2026-04-14 14:12 | 41.84100 | -8.55619 | 22430 ft | 454 kts | 356° |
| 2026-04-14 14:12 | 41.87239 | -8.55725 | 22901 ft | 457 kts | 356° |
| 2026-04-14 14:13 | 41.90441 | -8.55827 | 23354 ft | 460 kts | 356° |
| 2026-04-14 14:13 | 41.93651 | -8.55931 | 23788 ft | 464 kts | 356° |
| 2026-04-14 14:13 | 41.96891 | -8.56039 | 24142 ft | 466 kts | 356° |
| 2026-04-14 14:13 | 42.00133 | -8.56146 | 24566 ft | 466 kts | 356° |
| 2026-04-14 14:14 | 42.03366 | -8.56248 | 25041 ft | 464 kts | 356° |
| 2026-04-14 14:14 | 42.06595 | -8.56287 | 25504 ft | 464 kts | 359° |
| 2026-04-14 14:14 | 42.09827 | -8.55874 | 25957 ft | 465 kts | 3° |
| 2026-04-14 14:14 | 42.12995 | -8.55363 | 26390 ft | 465 kts | 3° |
| 2026-04-14 14:15 | 42.16206 | -8.54853 | 26849 ft | 464 kts | 3° |
| 2026-04-14 14:15 | 42.19414 | -8.54344 | 27329 ft | 462 kts | 3° |
| 2026-04-14 14:15 | 42.22608 | -8.53842 | 27747 ft | 462 kts | 3° |
| 2026-04-14 14:15 | 42.25796 | -8.53346 | 28194 ft | 460 kts | 3° |
| 2026-04-14 14:16 | 42.28978 | -8.52848 | 28627 ft | 459 kts | 3° |
| 2026-04-14 14:16 | 42.32152 | -8.52344 | 29066 ft | 459 kts | 2° |
| 2026-04-14 14:16 | 42.35320 | -8.51835 | 29476 ft | 459 kts | 3° |
| 2026-04-14 14:17 | 42.41656 | -8.50808 | 30331 ft | 457 kts | 2° |
| 2026-04-14 14:17 | 42.44805 | -8.50289 | 30668 ft | 456 kts | 3° |
| 2026-04-14 14:17 | 42.47958 | -8.49686 | 30996 ft | 458 kts | 7° |
| 2026-04-14 14:17 | 42.51017 | -8.48449 | 31309 ft | 463 kts | 18° |
| 2026-04-14 14:18 | 42.53842 | -8.46413 | 31579 ft | 470 kts | 30° |
| 2026-04-14 14:18 | 42.56409 | -8.43638 | 31873 ft | 474 kts | 37° |
| 2026-04-14 14:18 | 42.58878 | -8.40664 | 32165 ft | 474 kts | 38° |
| 2026-04-14 14:18 | 42.61342 | -8.37684 | 32457 ft | 473 kts | 38° |
| 2026-04-14 14:19 | 42.63806 | -8.34731 | 32761 ft | 472 kts | 37° |
| 2026-04-14 14:19 | 42.66274 | -8.31795 | 33125 ft | 469 kts | 37° |
| 2026-04-14 14:19 | 42.68720 | -8.28882 | 33453 ft | 467 kts | 37° |
| 2026-04-14 14:19 | 42.71165 | -8.25975 | 33747 ft | 466 kts | 37° |
| 2026-04-14 14:20 | 42.73605 | -8.23076 | 34004 ft | 465 kts | 37° |
| 2026-04-14 14:20 | 42.76044 | -8.20174 | 34232 ft | 466 kts | 38° |
| 2026-04-14 14:20 | 42.80916 | -8.14360 | 34285 ft | 465 kts | 37° |
| 2026-04-14 14:21 | 42.85785 | -8.08550 | 34260 ft | 465 kts | 38° |
| 2026-04-14 14:21 | 42.90661 | -8.02720 | 34252 ft | 465 kts | 38° |
| 2026-04-14 14:22 | 42.95492 | -7.96919 | 34260 ft | 466 kts | 38° |
| 2026-04-14 14:22 | 43.00347 | -7.91071 | 34244 ft | 464 kts | 38° |
| 2026-04-14 14:23 | 43.05198 | -7.85225 | 34241 ft | 464 kts | 38° |
| 2026-04-14 14:23 | 43.10040 | -7.79372 | 34242 ft | 464 kts | 38° |
| 2026-04-14 14:24 | 43.14879 | -7.73505 | 34236 ft | 464 kts | 38° |
| 2026-04-14 14:24 | 43.19718 | -7.67620 | 34250 ft | 466 kts | 38° |
| 2026-04-14 14:25 | 43.24564 | -7.61730 | 34242 ft | 466 kts | 38° |
| 2026-04-14 14:25 | 43.29375 | -7.55863 | 34234 ft | 463 kts | 38° |
| 2026-04-14 14:26 | 43.34202 | -7.49962 | 34230 ft | 464 kts | 38° |
| 2026-04-14 14:26 | 43.39018 | -7.44059 | 34224 ft | 464 kts | 38° |
| 2026-04-14 14:27 | 43.43840 | -7.38136 | 34219 ft | 465 kts | 38° |
| 2026-04-14 14:27 | 43.48653 | -7.32216 | 34214 ft | 464 kts | 38° |
| 2026-04-14 14:28 | 43.53460 | -7.26276 | 34211 ft | 464 kts | 38° |
| 2026-04-14 14:28 | 43.58240 | -7.20371 | 34217 ft | 464 kts | 38° |
| 2026-04-14 14:29 | 43.63038 | -7.14430 | 34211 ft | 464 kts | 38° |
| 2026-04-14 14:29 | 43.67849 | -7.08459 | 34209 ft | 465 kts | 38° |
| 2026-04-14 14:30 | 43.72655 | -7.02475 | 34207 ft | 465 kts | 38° |
| 2026-04-14 14:30 | 43.77459 | -6.96461 | 34207 ft | 465 kts | 38° |
| 2026-04-14 14:31 | 43.82262 | -6.90469 | 34204 ft | 465 kts | 38° |
| 2026-04-14 14:31 | 43.87071 | -6.84449 | 34202 ft | 466 kts | 38° |
| 2026-04-14 14:32 | 43.91831 | -6.78475 | 34203 ft | 464 kts | 38° |
| 2026-04-14 14:32 | 43.96622 | -6.72444 | 34199 ft | 464 kts | 38° |
| 2026-04-14 14:33 | 44.01387 | -6.66422 | 34201 ft | 464 kts | 38° |
| 2026-04-14 14:33 | 44.06169 | -6.60381 | 34203 ft | 465 kts | 38° |
| 2026-04-14 14:34 | 44.13347 | -6.51285 | 34199 ft | 465 kts | 38° |
| 2026-04-14 14:35 | 44.18094 | -6.45249 | 34204 ft | 464 kts | 38° |
| 2026-04-14 14:35 | 44.22845 | -6.39192 | 34190 ft | 462 kts | 38° |
| 2026-04-14 14:36 | 44.27591 | -6.33126 | 34199 ft | 463 kts | 38° |
| 2026-04-14 14:36 | 44.32345 | -6.27039 | 34196 ft | 463 kts | 38° |
| 2026-04-14 14:37 | 44.37085 | -6.20953 | 34192 ft | 463 kts | 38° |
| 2026-04-14 14:37 | 44.41823 | -6.14845 | 34193 ft | 463 kts | 38° |
| 2026-04-14 14:38 | 44.46533 | -6.08770 | 34198 ft | 464 kts | 38° |
| 2026-04-14 14:38 | 44.51256 | -6.02648 | 34188 ft | 461 kts | 38° |
| 2026-04-14 14:39 | 44.55974 | -5.96537 | 34190 ft | 461 kts | 38° |
| 2026-04-14 14:39 | 44.60690 | -5.90416 | 34190 ft | 462 kts | 38° |
| 2026-04-14 14:40 | 44.65400 | -5.84277 | 34183 ft | 462 kts | 38° |
| 2026-04-14 14:40 | 44.70023 | -5.77989 | 34183 ft | 463 kts | 39° |
| 2026-04-14 14:41 | 44.74602 | -5.71725 | 34181 ft | 463 kts | 39° |
| 2026-04-14 14:41 | 44.79191 | -5.65448 | 34180 ft | 458 kts | 39° |
| 2026-04-14 14:42 | 44.83765 | -5.59184 | 34179 ft | 459 kts | 39° |
| 2026-04-14 14:42 | 44.88335 | -5.52884 | 34190 ft | 460 kts | 39° |
| 2026-04-14 14:43 | 44.92916 | -5.46555 | 34187 ft | 461 kts | 39° |
| 2026-04-14 14:43 | 44.96723 | -5.41280 | 34180 ft | 461 kts | 39° |
| 2026-04-14 14:44 | 45.01304 | -5.34927 | 34193 ft | 461 kts | 39° |
| 2026-04-14 14:44 | 45.05846 | -5.28604 | 34170 ft | 456 kts | 39° |
| 2026-04-14 14:45 | 45.10370 | -5.22287 | 34180 ft | 458 kts | 39° |
| 2026-04-14 14:45 | 45.14903 | -5.15941 | 34179 ft | 458 kts | 39° |
| 2026-04-14 14:46 | 45.19426 | -5.09618 | 34175 ft | 459 kts | 39° |
| 2026-04-14 14:46 | 45.23991 | -5.03205 | 34171 ft | 459 kts | 39° |
| 2026-04-14 14:47 | 45.28504 | -4.96851 | 34178 ft | 454 kts | 39° |
| 2026-04-14 14:47 | 45.32967 | -4.90548 | 34171 ft | 456 kts | 39° |
| 2026-04-14 14:48 | 45.37466 | -4.84183 | 34165 ft | 456 kts | 39° |
| 2026-04-14 14:48 | 45.41955 | -4.77811 | 34163 ft | 456 kts | 39° |
| 2026-04-14 14:49 | 45.46451 | -4.71427 | 34177 ft | 456 kts | 39° |
| 2026-04-14 14:49 | 45.50939 | -4.65034 | 34173 ft | 455 kts | 39° |
| 2026-04-14 14:50 | 45.55396 | -4.58667 | 34161 ft | 453 kts | 39° |
| 2026-04-14 14:50 | 45.59845 | -4.52303 | 34158 ft | 453 kts | 39° |
| 2026-04-14 14:51 | 45.64267 | -4.45959 | 34157 ft | 453 kts | 39° |
| 2026-04-14 14:51 | 45.68716 | -4.39564 | 34158 ft | 453 kts | 39° |
| 2026-04-14 14:52 | 45.73162 | -4.33140 | 34148 ft | 455 kts | 39° |
| 2026-04-14 14:52 | 45.77627 | -4.26693 | 34153 ft | 455 kts | 39° |
| 2026-04-14 14:53 | 45.82053 | -4.20281 | 34152 ft | 455 kts | 39° |
| 2026-04-14 14:53 | 45.86501 | -4.13814 | 34137 ft | 455 kts | 39° |
| 2026-04-14 14:54 | 45.90948 | -4.07342 | 34152 ft | 456 kts | 39° |
| 2026-04-14 14:54 | 45.95411 | -4.00839 | 34148 ft | 458 kts | 40° |
| 2026-04-14 14:55 | 45.99876 | -3.94306 | 34156 ft | 455 kts | 39° |
| 2026-04-14 14:55 | 46.04294 | -3.87827 | 34148 ft | 453 kts | 39° |
| 2026-04-14 14:56 | 46.10922 | -3.78078 | 34143 ft | 454 kts | 40° |
| 2026-04-14 14:56 | 46.15312 | -3.71590 | 34142 ft | 455 kts | 40° |
| 2026-04-14 14:57 | 46.19747 | -3.65038 | 34138 ft | 455 kts | 40° |
| 2026-04-14 14:57 | 46.24172 | -3.58480 | 34156 ft | 455 kts | 40° |
| 2026-04-14 14:58 | 46.28547 | -3.51945 | 34139 ft | 451 kts | 40° |
| 2026-04-14 14:58 | 46.32928 | -3.45430 | 34143 ft | 452 kts | 39° |
| 2026-04-14 14:59 | 46.37291 | -3.38933 | 34133 ft | 453 kts | 40° |
| 2026-04-14 14:59 | 46.41678 | -3.32355 | 34138 ft | 454 kts | 40° |
| 2026-04-14 15:00 | 46.46053 | -3.25741 | 34135 ft | 454 kts | 40° |
| 2026-04-14 15:00 | 46.50424 | -3.19161 | 34142 ft | 451 kts | 40° |
| 2026-04-14 15:01 | 46.54766 | -3.12580 | 34138 ft | 452 kts | 40° |
| 2026-04-14 15:01 | 46.58616 | -3.05221 | 34139 ft | 463 kts | 53° |
| 2026-04-14 15:02 | 46.61868 | -2.97113 | 34140 ft | 465 kts | 54° |
| 2026-04-14 15:02 | 46.65093 | -2.89025 | 34138 ft | 464 kts | 53° |
| 2026-04-14 15:03 | 46.68336 | -2.80874 | 34151 ft | 463 kts | 53° |
| 2026-04-14 15:03 | 46.71545 | -2.72756 | 34142 ft | 462 kts | 53° |
| 2026-04-14 15:04 | 46.74766 | -2.64655 | 34145 ft | 462 kts | 53° |
| 2026-04-14 15:04 | 46.77992 | -2.56546 | 34145 ft | 462 kts | 53° |
| 2026-04-14 15:05 | 46.81218 | -2.48430 | 34145 ft | 462 kts | 53° |
| 2026-04-14 15:05 | 46.84400 | -2.40358 | 34175 ft | 459 kts | 53° |
| 2026-04-14 15:06 | 46.87658 | -2.32374 | 34165 ft | 457 kts | 51° |
| 2026-04-14 15:06 | 46.90987 | -2.24454 | 34166 ft | 457 kts | 52° |
| 2026-04-14 15:07 | 46.94310 | -2.16527 | 34162 ft | 456 kts | 51° |
| 2026-04-14 15:07 | 46.97646 | -2.08591 | 34180 ft | 458 kts | 52° |
| 2026-04-14 15:08 | 47.01275 | -2.01060 | 34179 ft | 442 kts | 39° |
| 2026-04-14 15:08 | 47.05934 | -1.95519 | 34205 ft | 432 kts | 30° |
| 2026-04-14 15:09 | 47.08362 | -1.92884 | 34369 ft | 433 kts | 30° |
| 2026-04-14 15:09 | 47.10766 | -1.90248 | 34618 ft | 432 kts | 30° |
| 2026-04-14 15:09 | 47.13178 | -1.87594 | 34857 ft | 431 kts | 30° |
| 2026-04-14 15:09 | 47.15573 | -1.84947 | 35073 ft | 431 kts | 30° |
| 2026-04-14 15:10 | 47.17967 | -1.82300 | 35265 ft | 431 kts | 30° |
| 2026-04-14 15:10 | 47.20367 | -1.79658 | 35461 ft | 430 kts | 30° |
| 2026-04-14 15:10 | 47.22764 | -1.77016 | 35640 ft | 430 kts | 30° |
| 2026-04-14 15:10 | 47.25158 | -1.74367 | 35825 ft | 430 kts | 30° |
| 2026-04-14 15:11 | 47.27547 | -1.71731 | 36005 ft | 429 kts | 30° |
| 2026-04-14 15:11 | 47.29905 | -1.69124 | 36165 ft | 430 kts | 30° |
| 2026-04-14 15:11 | 47.34620 | -1.63612 | 36204 ft | 433 kts | 37° |
| 2026-04-14 15:12 | 47.38498 | -1.56755 | 36175 ft | 440 kts | 44° |
| 2026-04-14 15:12 | 47.42243 | -1.49600 | 36169 ft | 441 kts | 44° |
| 2026-04-14 15:13 | 47.46016 | -1.42460 | 36169 ft | 441 kts | 44° |
| 2026-04-14 15:13 | 47.49797 | -1.35290 | 36169 ft | 441 kts | 44° |
| 2026-04-14 15:14 | 47.53560 | -1.28125 | 36172 ft | 441 kts | 44° |
| 2026-04-14 15:14 | 47.57315 | -1.20965 | 36178 ft | 439 kts | 44° |
| 2026-04-14 15:15 | 47.61055 | -1.13804 | 36179 ft | 440 kts | 44° |
| 2026-04-14 15:15 | 47.64803 | -1.06627 | 36177 ft | 440 kts | 44° |
| 2026-04-14 15:16 | 47.68548 | -0.99446 | 36184 ft | 440 kts | 44° |
| 2026-04-14 15:16 | 47.72263 | -0.92284 | 36183 ft | 440 kts | 44° |
| 2026-04-14 15:17 | 47.75997 | -0.85072 | 36178 ft | 440 kts | 44° |
| 2026-04-14 15:17 | 47.79707 | -0.77865 | 36190 ft | 436 kts | 44° |
| 2026-04-14 15:18 | 47.83415 | -0.70657 | 36179 ft | 438 kts | 44° |
| 2026-04-14 15:18 | 47.87120 | -0.63460 | 36176 ft | 438 kts | 44° |
| 2026-04-14 15:19 | 47.90817 | -0.56236 | 36175 ft | 438 kts | 44° |
| 2026-04-14 15:19 | 47.94508 | -0.49012 | 36177 ft | 438 kts | 44° |
| 2026-04-14 15:20 | 47.98197 | -0.41771 | 36178 ft | 438 kts | 44° |
| 2026-04-14 15:20 | 48.01856 | -0.34555 | 36184 ft | 439 kts | 44° |
| 2026-04-14 15:21 | 48.05559 | -0.27252 | 36180 ft | 442 kts | 45° |
| 2026-04-14 15:21 | 48.08602 | -0.19094 | 36182 ft | 454 kts | 57° |
| 2026-04-14 15:22 | 48.11258 | -0.10520 | 36184 ft | 454 kts | 57° |
| 2026-04-14 15:22 | 48.13924 | -0.01938 | 36184 ft | 454 kts | 57° |
| 2026-04-14 15:23 | 48.16589 | 0.06580 | 36175 ft | 450 kts | 56° |
| 2026-04-14 15:23 | 48.19228 | 0.15028 | 36182 ft | 450 kts | 57° |
| 2026-04-14 15:24 | 48.21862 | 0.23535 | 36165 ft | 450 kts | 57° |
| 2026-04-14 15:24 | 48.24505 | 0.32082 | 36172 ft | 452 kts | 57° |
| 2026-04-14 15:25 | 48.27139 | 0.40653 | 36183 ft | 452 kts | 57° |
| 2026-04-14 15:25 | 48.29759 | 0.49213 | 36196 ft | 449 kts | 57° |
| 2026-04-14 15:26 | 48.32375 | 0.57720 | 36190 ft | 449 kts | 57° |
| 2026-04-14 15:26 | 48.34982 | 0.66260 | 36183 ft | 449 kts | 57° |
| 2026-04-14 15:27 | 48.37552 | 0.74772 | 36187 ft | 449 kts | 57° |
| 2026-04-14 15:27 | 48.40143 | 0.83325 | 36184 ft | 449 kts | 57° |
| 2026-04-14 15:28 | 48.42729 | 0.91876 | 36199 ft | 447 kts | 57° |
| 2026-04-14 15:28 | 48.45307 | 1.00404 | 36194 ft | 448 kts | 57° |
| 2026-04-14 15:29 | 48.47443 | 1.07531 | 36190 ft | 448 kts | 57° |
| 2026-04-14 15:29 | 48.50004 | 1.16096 | 36187 ft | 448 kts | 57° |
| 2026-04-14 15:30 | 48.52559 | 1.24678 | 36192 ft | 448 kts | 57° |
| 2026-04-14 15:30 | 48.55109 | 1.33268 | 36214 ft | 447 kts | 57° |
| 2026-04-14 15:31 | 48.57619 | 1.41773 | 36205 ft | 445 kts | 57° |
| 2026-04-14 15:31 | 48.60145 | 1.50330 | 36196 ft | 446 kts | 57° |
| 2026-04-14 15:32 | 48.62657 | 1.58883 | 36200 ft | 445 kts | 57° |
| 2026-04-14 15:32 | 48.65078 | 1.67553 | 36202 ft | 451 kts | 61° |
| 2026-04-14 15:33 | 48.67245 | 1.76483 | 36218 ft | 451 kts | 61° |
| 2026-04-14 15:33 | 48.69384 | 1.85347 | 36203 ft | 448 kts | 61° |
| 2026-04-14 15:34 | 48.71503 | 1.94135 | 36201 ft | 448 kts | 61° |
| 2026-04-14 15:34 | 48.73634 | 2.03028 | 36203 ft | 448 kts | 61° |
| 2026-04-14 15:35 | 48.75670 | 2.11980 | 36200 ft | 453 kts | 65° |
| 2026-04-14 15:35 | 48.77332 | 2.21206 | 36224 ft | 452 kts | 66° |
| 2026-04-14 15:36 | 48.78972 | 2.30382 | 36203 ft | 450 kts | 66° |
| 2026-04-14 15:36 | 48.80616 | 2.39484 | 36203 ft | 450 kts | 65° |
| 2026-04-14 15:37 | 48.82281 | 2.48708 | 36202 ft | 450 kts | 66° |
| 2026-04-14 15:37 | 48.83905 | 2.57866 | 36197 ft | 450 kts | 66° |
| 2026-04-14 15:38 | 48.85514 | 2.66993 | 36224 ft | 448 kts | 66° |
| 2026-04-14 15:38 | 48.87118 | 2.76123 | 36204 ft | 447 kts | 66° |
| 2026-04-14 15:39 | 48.88711 | 2.85243 | 36204 ft | 447 kts | 66° |
| 2026-04-14 15:39 | 48.90296 | 2.94403 | 36205 ft | 447 kts | 66° |
| 2026-04-14 15:40 | 48.91866 | 3.03551 | 36209 ft | 447 kts | 66° |
| 2026-04-14 15:40 | 48.93442 | 3.12717 | 36226 ft | 448 kts | 67° |
| 2026-04-14 15:41 | 48.95012 | 3.21891 | 36218 ft | 448 kts | 67° |
| 2026-04-14 15:41 | 48.96581 | 3.31059 | 36213 ft | 448 kts | 67° |
| 2026-04-14 15:42 | 48.98142 | 3.40253 | 36213 ft | 448 kts | 67° |
| 2026-04-14 15:42 | 48.99688 | 3.49434 | 36218 ft | 448 kts | 67° |
| 2026-04-14 15:43 | 49.01213 | 3.58572 | 36232 ft | 449 kts | 68° |
| 2026-04-14 15:43 | 49.02750 | 3.67799 | 36219 ft | 449 kts | 68° |
| 2026-04-14 15:44 | 49.04276 | 3.77052 | 36213 ft | 451 kts | 68° |
| 2026-04-14 15:44 | 49.05794 | 3.86319 | 36208 ft | 451 kts | 68° |
| 2026-04-14 15:45 | 49.07326 | 3.95596 | 36203 ft | 450 kts | 68° |
| 2026-04-14 15:45 | 49.08841 | 4.04869 | 36206 ft | 450 kts | 68° |
| 2026-04-14 15:46 | 49.10343 | 4.14156 | 36207 ft | 451 kts | 68° |
| 2026-04-14 15:46 | 49.11830 | 4.23402 | 36204 ft | 451 kts | 68° |
| 2026-04-14 15:47 | 49.13321 | 4.32697 | 36209 ft | 451 kts | 68° |
| 2026-04-14 15:47 | 49.15341 | 4.41639 | 36224 ft | 441 kts | 60° |
| 2026-04-14 15:48 | 49.17720 | 4.50314 | 36207 ft | 443 kts | 60° |
| 2026-04-14 15:48 | 49.20082 | 4.59017 | 36216 ft | 443 kts | 60° |
| 2026-04-14 15:49 | 49.22433 | 4.67727 | 36222 ft | 444 kts | 60° |
| 2026-04-14 15:49 | 49.24782 | 4.76470 | 36220 ft | 445 kts | 60° |
| 2026-04-14 15:50 | 49.27117 | 4.85208 | 36216 ft | 445 kts | 60° |
| 2026-04-14 15:50 | 49.29461 | 4.93995 | 36216 ft | 447 kts | 61° |
| 2026-04-14 15:51 | 49.31814 | 5.02858 | 36202 ft | 448 kts | 62° |
| 2026-04-14 15:51 | 49.34156 | 5.11715 | 36209 ft | 449 kts | 62° |
| 2026-04-14 15:52 | 49.36489 | 5.20594 | 36212 ft | 448 kts | 62° |
| 2026-04-14 15:52 | 49.38817 | 5.29483 | 36211 ft | 449 kts | 62° |
| 2026-04-14 15:53 | 49.41142 | 5.38381 | 36231 ft | 450 kts | 63° |
| 2026-04-14 15:53 | 49.43479 | 5.47315 | 36212 ft | 451 kts | 62° |
| 2026-04-14 15:54 | 49.46965 | 5.60733 | 36211 ft | 451 kts | 63° |
| 2026-04-14 15:55 | 49.49254 | 5.69656 | 36212 ft | 450 kts | 63° |
| 2026-04-14 15:55 | 49.51542 | 5.78637 | 36208 ft | 452 kts | 64° |
| 2026-04-14 15:56 | 49.53716 | 5.87677 | 36211 ft | 452 kts | 64° |
| 2026-04-14 15:56 | 49.55981 | 5.96726 | 36200 ft | 451 kts | 64° |
| 2026-04-14 15:57 | 49.58207 | 6.05692 | 36196 ft | 442 kts | 64° |
| 2026-04-14 15:57 | 49.60396 | 6.14628 | 36207 ft | 451 kts | 64° |
| 2026-04-14 15:58 | 49.62616 | 6.23712 | 36203 ft | 453 kts | 64° |
| 2026-04-14 15:58 | 49.65289 | 6.32368 | 36225 ft | 447 kts | 54° |
| 2026-04-14 15:58 | 49.66890 | 6.36521 | 35984 ft | 443 kts | 54° |
| 2026-04-14 15:59 | 49.68460 | 6.40545 | 35649 ft | 442 kts | 54° |
| 2026-04-14 15:59 | 49.70047 | 6.44592 | 35379 ft | 441 kts | 52° |
| 2026-04-14 15:59 | 49.71873 | 6.48345 | 35123 ft | 433 kts | 43° |
| 2026-04-14 15:59 | 49.74066 | 6.51476 | 34882 ft | 426 kts | 32° |
| 2026-04-14 16:00 | 49.76568 | 6.53890 | 34639 ft | 419 kts | 22° |
| 2026-04-14 16:00 | 49.79236 | 6.55593 | 34417 ft | 415 kts | 16° |
| 2026-04-14 16:00 | 49.81965 | 6.57092 | 34176 ft | 414 kts | 15° |
| 2026-04-14 16:00 | 49.84677 | 6.58568 | 33909 ft | 414 kts | 16° |
| 2026-04-14 16:01 | 49.87394 | 6.60070 | 33640 ft | 414 kts | 16° |
| 2026-04-14 16:01 | 49.90114 | 6.61582 | 33368 ft | 415 kts | 16° |
| 2026-04-14 16:01 | 49.92803 | 6.63087 | 33106 ft | 416 kts | 17° |
| 2026-04-14 16:01 | 49.95527 | 6.64617 | 32828 ft | 417 kts | 17° |
| 2026-04-14 16:02 | 49.98256 | 6.66151 | 32165 ft | 416 kts | 17° |
| 2026-04-14 16:02 | 50.00975 | 6.67679 | 31381 ft | 416 kts | 17° |
| 2026-04-14 16:02 | 50.03699 | 6.69213 | 30592 ft | 416 kts | 17° |
| 2026-04-14 16:02 | 50.06400 | 6.70738 | 29712 ft | 417 kts | 17° |
| 2026-04-14 16:03 | 50.09160 | 6.72300 | 28787 ft | 418 kts | 17° |
| 2026-04-14 16:03 | 50.11884 | 6.73851 | 27941 ft | 417 kts | 17° |
| 2026-04-14 16:03 | 50.14620 | 6.75398 | 27044 ft | 418 kts | 17° |
| 2026-04-14 16:03 | 50.17310 | 6.76960 | 26162 ft | 420 kts | 20° |
| 2026-04-14 16:04 | 50.19942 | 6.79066 | 25251 ft | 428 kts | 30° |
| 2026-04-14 16:04 | 50.22321 | 6.81909 | 24438 ft | 437 kts | 40° |
| 2026-04-14 16:04 | 50.24371 | 6.85480 | 23715 ft | 443 kts | 51° |
| 2026-04-14 16:04 | 50.25963 | 6.89599 | 22910 ft | 444 kts | 62° |
| 2026-04-14 16:05 | 50.27035 | 6.94128 | 22291 ft | 451 kts | 73° |
| 2026-04-14 16:05 | 50.27565 | 6.99076 | 21874 ft | 467 kts | 84° |
| 2026-04-14 16:05 | 50.27467 | 7.04144 | 21473 ft | 467 kts | 96° |
| 2026-04-14 16:05 | 50.26750 | 7.09043 | 20909 ft | 460 kts | 107° |
| 2026-04-14 16:06 | 50.25507 | 7.13618 | 20273 ft | 453 kts | 114° |
| 2026-04-14 16:06 | 50.24152 | 7.18006 | 19682 ft | 444 kts | 115° |
| 2026-04-14 16:06 | 50.22836 | 7.22269 | 19081 ft | 438 kts | 115° |
| 2026-04-14 16:06 | 50.21518 | 7.26586 | 18443 ft | 433 kts | 114° |
| 2026-04-14 16:07 | 50.20364 | 7.30906 | 17422 ft | 430 kts | 110° |
| 2026-04-14 16:07 | 50.19323 | 7.35225 | 16572 ft | 430 kts | 109° |
| 2026-04-14 16:07 | 50.18271 | 7.39607 | 15967 ft | 430 kts | 109° |
| 2026-04-14 16:07 | 50.17213 | 7.43951 | 15420 ft | 425 kts | 109° |
| 2026-04-14 16:08 | 50.16153 | 7.48237 | 14895 ft | 421 kts | 110° |
| 2026-04-14 16:08 | 50.15100 | 7.52456 | 14443 ft | 410 kts | 109° |
| 2026-04-14 16:08 | 50.14090 | 7.56513 | 14115 ft | 393 kts | 110° |
| 2026-04-14 16:08 | 50.13121 | 7.60399 | 13844 ft | 377 kts | 109° |
| 2026-04-14 16:09 | 50.12199 | 7.64094 | 13567 ft | 363 kts | 109° |
| 2026-04-14 16:09 | 50.11294 | 7.67741 | 13277 ft | 350 kts | 108° |
| 2026-04-14 16:09 | 50.10563 | 7.71237 | 12981 ft | 335 kts | 105° |
| 2026-04-14 16:09 | 50.09906 | 7.74619 | 12690 ft | 320 kts | 105° |
| 2026-04-14 16:10 | 50.09275 | 7.77881 | 12336 ft | 307 kts | 106° |
| 2026-04-14 16:10 | 50.08670 | 7.81008 | 11951 ft | 298 kts | 107° |
| 2026-04-14 16:10 | 50.08128 | 7.84111 | 11596 ft | 288 kts | 101° |
| 2026-04-14 16:10 | 50.08102 | 7.87147 | 11304 ft | 277 kts | 77° |
| 2026-04-14 16:11 | 50.08673 | 7.89902 | 11198 ft | 264 kts | 69° |
| 2026-04-14 16:11 | 50.09356 | 7.92571 | 11186 ft | 264 kts | 68° |
| 2026-04-14 16:11 | 50.10044 | 7.95259 | 11192 ft | 264 kts | 68° |
| 2026-04-14 16:11 | 50.10709 | 7.97894 | 11196 ft | 264 kts | 69° |
| 2026-04-14 16:12 | 50.11376 | 8.00570 | 11201 ft | 266 kts | 69° |
| 2026-04-14 16:12 | 50.12035 | 8.03240 | 11203 ft | 264 kts | 69° |
| 2026-04-14 16:12 | 50.12697 | 8.05937 | 11207 ft | 266 kts | 69° |
| 2026-04-14 16:12 | 50.13353 | 8.08626 | 11207 ft | 265 kts | 69° |
| 2026-04-14 16:13 | 50.14008 | 8.11310 | 11212 ft | 265 kts | 69° |
| 2026-04-14 16:13 | 50.14659 | 8.13983 | 11210 ft | 265 kts | 69° |
| 2026-04-14 16:13 | 50.15092 | 8.15773 | 11210 ft | 266 kts | 69° |
| 2026-04-14 16:13 | 50.15743 | 8.18459 | 11211 ft | 264 kts | 69° |
| 2026-04-14 16:14 | 50.16391 | 8.21142 | 11207 ft | 262 kts | 69° |
| 2026-04-14 16:14 | 50.17033 | 8.23787 | 10894 ft | 261 kts | 69° |
| 2026-04-14 16:14 | 50.17677 | 8.26440 | 10473 ft | 262 kts | 69° |
| 2026-04-14 16:14 | 50.18312 | 8.29064 | 10077 ft | 261 kts | 70° |
| 2026-04-14 16:15 | 50.18961 | 8.31749 | 9654 ft | 261 kts | 69° |
| 2026-04-14 16:15 | 50.19535 | 8.34416 | 9254 ft | 258 kts | 79° |
| 2026-04-14 16:15 | 50.19494 | 8.37181 | 8858 ft | 254 kts | 107° |
| 2026-04-14 16:15 | 50.18663 | 8.39561 | 8471 ft | 250 kts | 133° |
| 2026-04-14 16:16 | 50.17265 | 8.41095 | 8049 ft | 249 kts | 156° |
| 2026-04-14 16:16 | 50.15637 | 8.42004 | 7651 ft | 248 kts | 161° |
| 2026-04-14 16:16 | 50.13976 | 8.42762 | 7252 ft | 249 kts | 169° |
| 2026-04-14 16:16 | 50.12252 | 8.42660 | 6830 ft | 250 kts | 198° |
| 2026-04-14 16:17 | 50.10773 | 8.41320 | 6417 ft | 248 kts | 226° |
| 2026-04-14 16:17 | 50.09866 | 8.39099 | 6021 ft | 245 kts | 250° |
| 2026-04-14 16:17 | 50.09304 | 8.36582 | 5645 ft | 244 kts | 254° |
| 2026-04-14 16:17 | 50.08764 | 8.34071 | 5304 ft | 242 kts | 253° |
| 2026-04-14 16:18 | 50.08210 | 8.31607 | 5011 ft | 240 kts | 252° |
| 2026-04-14 16:18 | 50.07640 | 8.29158 | 4965 ft | 240 kts | 252° |
| 2026-04-14 16:18 | 50.07060 | 8.26705 | 4976 ft | 241 kts | 252° |
| 2026-04-14 16:18 | 50.06476 | 8.24264 | 4988 ft | 241 kts | 251° |
| 2026-04-14 16:19 | 50.05888 | 8.21834 | 4996 ft | 239 kts | 251° |
| 2026-04-14 16:19 | 50.05315 | 8.19468 | 5001 ft | 240 kts | 251° |
| 2026-04-14 16:19 | 50.04717 | 8.17009 | 4999 ft | 240 kts | 251° |
| 2026-04-14 16:19 | 50.04127 | 8.14587 | 5005 ft | 240 kts | 251° |
| 2026-04-14 16:20 | 50.03535 | 8.12159 | 5005 ft | 240 kts | 251° |
| 2026-04-14 16:20 | 50.02941 | 8.09728 | 5001 ft | 239 kts | 251° |
| 2026-04-14 16:20 | 50.02352 | 8.07310 | 5002 ft | 239 kts | 251° |
| 2026-04-14 16:20 | 50.01763 | 8.04896 | 5005 ft | 239 kts | 250° |
| 2026-04-14 16:21 | 50.01174 | 8.02485 | 5012 ft | 237 kts | 251° |
| 2026-04-14 16:21 | 50.00537 | 8.00228 | 4977 ft | 220 kts | 236° |
| 2026-04-14 16:21 | 49.99393 | 7.98715 | 4974 ft | 221 kts | 203° |
| 2026-04-14 16:21 | 49.97889 | 7.98330 | 4984 ft | 221 kts | 171° |
| 2026-04-14 16:22 | 49.96486 | 7.99199 | 4993 ft | 217 kts | 139° |
| 2026-04-14 16:22 | 49.95599 | 8.01032 | 5005 ft | 213 kts | 109° |
| 2026-04-14 16:22 | 49.95138 | 8.03212 | 5016 ft | 213 kts | 104° |
| 2026-04-14 16:22 | 49.94742 | 8.05392 | 5013 ft | 212 kts | 103° |
| 2026-04-14 16:23 | 49.94345 | 8.07598 | 5007 ft | 212 kts | 101° |
| 2026-04-14 16:23 | 49.94303 | 8.09853 | 5001 ft | 209 kts | 78° |
| 2026-04-14 16:23 | 49.94658 | 8.12056 | 5004 ft | 208 kts | 69° |
| 2026-04-14 16:23 | 49.95159 | 8.14074 | 4994 ft | 194 kts | 68° |
| 2026-04-14 16:24 | 49.95607 | 8.15945 | 4970 ft | 174 kts | 67° |
| 2026-04-14 16:24 | 49.96033 | 8.17709 | 4908 ft | 175 kts | 67° |
| 2026-04-14 16:24 | 49.96459 | 8.19480 | 4708 ft | 175 kts | 67° |
| 2026-04-14 16:24 | 49.96882 | 8.21244 | 4453 ft | 174 kts | 68° |
| 2026-04-14 16:25 | 49.97303 | 8.22998 | 4230 ft | 172 kts | 67° |
| 2026-04-14 16:25 | 49.97722 | 8.24747 | 3967 ft | 172 kts | 67° |
| 2026-04-14 16:25 | 49.98139 | 8.26481 | 3704 ft | 171 kts | 67° |
| 2026-04-14 16:25 | 49.98556 | 8.28220 | 3458 ft | 171 kts | 68° |
| 2026-04-14 16:26 | 49.98968 | 8.29936 | 3209 ft | 171 kts | 68° |
| 2026-04-14 16:26 | 49.99380 | 8.31657 | 2964 ft | 171 kts | 67° |
| 2026-04-14 16:26 | 49.99794 | 8.33386 | 2719 ft | 169 kts | 67° |
| 2026-04-14 16:26 | 50.00207 | 8.35109 | 2462 ft | 171 kts | 68° |
| 2026-04-14 16:27 | 50.00623 | 8.36844 | 2199 ft | 171 kts | 68° |
| 2026-04-14 16:27 | 50.01031 | 8.38550 | 1956 ft | 169 kts | 68° |
| 2026-04-14 16:27 | 50.01434 | 8.40232 | 1731 ft | 162 kts | 67° |
| 2026-04-14 16:27 | 50.01806 | 8.41787 | 1514 ft | 145 kts | 68° |
| 2026-04-14 16:28 | 50.02136 | 8.43163 | 1271 ft | 130 kts | 68° |
| 2026-04-14 16:28 | 50.02454 | 8.44490 | 1076 ft | 129 kts | 66° |
| 2026-04-14 16:28 | 50.02768 | 8.45780 | 903 ft | 129 kts | 66° |
| 2026-04-14 16:28 | 50.03081 | 8.47084 | 753 ft | 127 kts | 66° |
| 2026-04-14 16:29 | 50.03388 | 8.48378 | 526 ft | 129 kts | 68° |
| 2026-04-14 16:29 | 50.03693 | 8.49667 | 373 ft | 127 kts | 68° |
| 2026-04-14 16:29 | 50.03984 | 8.50892 | 330 ft | 105 kts | 67° |
| 2026-04-14 16:29 | 50.04165 | 8.51625 | 339 ft | 44 kts | 69° |
| 2026-04-14 16:30 | 50.04234 | 8.51992 | 344 ft | 17 kts | 84° |
| 2026-04-14 16:30 | 50.04236 | 8.52144 | 345 ft | 16 kts | 91° |
| 2026-04-14 16:30 | 50.04216 | 8.52329 | 350 ft | 19 kts | 98° |
| 2026-04-14 16:30 | 50.04196 | 8.52524 | 361 ft | 19 kts | 98° |
| 2026-04-14 16:31 | 50.04207 | 8.52703 | 355 ft | 18 kts | 69° |
| 2026-04-14 16:31 | 50.04252 | 8.52892 | 362 ft | 20 kts | 69° |
| 2026-04-14 16:31 | 50.04305 | 8.53112 | 366 ft | 24 kts | 69° |
| 2026-04-14 16:31 | 50.04366 | 8.53370 | 375 ft | 28 kts | 69° |
| 2026-04-14 16:32 | 50.04402 | 8.53636 | 381 ft | 25 kts | 85° |
| 2026-04-14 16:32 | 50.04417 | 8.53848 | 381 ft | 19 kts | 83° |
| 2026-04-14 16:32 | 50.04431 | 8.54059 | 381 ft | 17 kts | 83° |
| 2026-04-14 16:32 | 50.04442 | 8.54224 | 381 ft | 13 kts | 83° |
| 2026-04-14 16:33 | 50.04450 | 8.54358 | 378 ft | 13 kts | 83° |
| 2026-04-14 16:33 | 50.04447 | 8.54500 | 373 ft | 14 kts | 102° |
| 2026-04-14 16:33 | 50.04408 | 8.54644 | 374 ft | 15 kts | 125° |
| 2026-04-14 16:33 | 50.04329 | 8.54761 | 366 ft | 14 kts | 149° |
| 2026-04-14 16:34 | 50.04324 | 8.54765 | 363 ft | 0 kts | 158° |
| 2026-04-14 16:35 | 50.04316 | 8.54769 | 362 ft | 4 kts | 159° |
| 2026-04-14 16:35 | 50.04278 | 8.54790 | 363 ft | 7 kts | 160° |
| 2026-04-14 16:35 | 50.04227 | 8.54817 | 360 ft | 9 kts | 160° |
| 2026-04-14 16:35 | 50.04162 | 8.54853 | 361 ft | 11 kts | 160° |
| 2026-04-14 16:36 | 50.04086 | 8.54896 | 358 ft | 13 kts | 159° |
| 2026-04-14 16:36 | 50.04018 | 8.54992 | 361 ft | 16 kts | 91° |
| 2026-04-14 16:36 | 50.04054 | 8.55165 | 365 ft | 18 kts | 69° |
| 2026-04-14 16:36 | 50.04099 | 8.55357 | 360 ft | 20 kts | 69° |
| 2026-04-14 16:37 | 50.04148 | 8.55561 | 361 ft | 20 kts | 69° |
| 2026-04-14 16:37 | 50.04190 | 8.55733 | 359 ft | 12 kts | 68° |
| 2026-04-14 16:37 | 50.04221 | 8.55868 | 365 ft | 14 kts | 69° |
| 2026-04-14 16:37 | 50.04257 | 8.56016 | 364 ft | 7 kts | 66° |
| 2026-04-14 16:38 | 50.04300 | 8.56069 | 364 ft | 10 kts | 7° |
| 2026-04-14 16:38 | 50.04376 | 8.56038 | 361 ft | 11 kts | 339° |
| 2026-04-14 16:38 | 50.04443 | 8.56079 | 364 ft | 13 kts | 65° |
| 2026-04-14 16:38 | 50.04474 | 8.56209 | 367 ft | 6 kts | 69° |
| 2026-04-14 16:39 | 50.04491 | 8.56287 | 364 ft | 9 kts | 70° |
| 2026-04-14 16:39 | 50.04508 | 8.56362 | 361 ft | 0 kts | 81° |
| 2026-04-14 16:39 | 50.04507 | 8.56381 | 363 ft | 3 kts | 106° |
| 2026-04-14 16:39 | 50.04486 | 8.56407 | 362 ft | 3 kts | 154° |
| 2026-04-14 16:40 | 50.04467 | 8.56420 | 364 ft | 1 kts | 155° |
| 2026-04-14 16:40 | 50.04457 | 8.56427 | 362 ft | 0 kts | 153° |